createdAt,value
2019-04-20T00:00:12.571Z,45.65
2019-04-20T00:01:12.546Z,45.56
2019-04-20T00:02:14.256Z,45.65
2019-04-20T00:03:11.645Z,45.56
2019-04-20T00:04:09.881Z,46.07
2019-04-20T00:05:09.885Z,45.86
2019-04-20T00:06:09.131Z,45.45
2019-04-20T00:07:08.649Z,45.35
2019-04-20T00:08:15.935Z,45.45
2019-04-20T00:09:20.653Z,45.97
2019-04-20T00:10:15.067Z,46.17
2019-04-20T00:11:16.303Z,45.97
2019-04-20T00:12:18.962Z,45.89
2019-04-20T00:13:21.559Z,45.89
2019-04-20T00:14:16.208Z,46.19
2019-04-20T00:15:09.433Z,46.81
2019-04-20T00:16:08.413Z,47.22
2019-04-20T00:17:11.710Z,47.22
2019-04-20T00:18:09.916Z,47.31
2019-04-20T00:19:09.254Z,46.60
2019-04-20T00:20:13.417Z,46.81
2019-04-20T00:21:12.608Z,47.42
2019-04-20T00:22:12.321Z,47.01
2019-04-20T00:23:13.445Z,47.01
2019-04-20T00:24:16.983Z,47.55
2019-04-20T00:25:15.510Z,47.63
2019-04-20T00:26:17.300Z,47.42
2019-04-20T00:27:31.550Z,47.52
2019-04-20T00:28:31.634Z,47.93
2019-04-20T00:29:30.871Z,47.52
2019-04-20T00:30:32.612Z,47.31
2019-04-20T00:31:23.457Z,47.63
2019-04-20T00:32:19.770Z,48.36
2019-04-20T00:33:24.164Z,47.96
2019-04-20T00:34:18.042Z,48.14
2019-04-20T00:35:10.461Z,48.36
2019-04-20T00:36:08.968Z,48.26
2019-04-20T00:37:08.862Z,47.85
2019-04-20T00:38:10.281Z,48.57
2019-04-20T00:39:11.384Z,48.88
2019-04-20T00:40:09.862Z,48.77
2019-04-20T00:41:11.793Z,48.47
2019-04-20T00:42:12.855Z,47.96
2019-04-20T00:43:13.277Z,48.16
2019-04-20T00:44:13.390Z,48.26
2019-04-20T00:45:17.976Z,48.36
2019-04-20T00:46:18.270Z,48.77
2019-04-20T00:47:21.877Z,48.47
2019-04-20T00:48:22.630Z,48.16
2019-04-20T00:49:27.569Z,48.77
2019-04-20T00:50:25.614Z,48.47
2019-04-20T00:51:32.779Z,49.29
2019-04-20T00:52:27.532Z,48.98
2019-04-20T00:53:17.103Z,49.69
2019-04-20T00:54:09.729Z,49.21
2019-04-20T00:55:08.335Z,49.72
2019-04-20T00:56:08.069Z,49.18
2019-04-20T00:57:17.954Z,48.90
2019-04-20T00:58:19.279Z,49.21
2019-04-20T00:59:20.088Z,49.72
2019-04-20T01:00:27.355Z,49.72
2019-04-20T01:01:31.164Z,49.72
2019-04-20T01:02:37.157Z,49.62
2019-04-20T01:03:26.564Z,49.93
2019-04-20T01:04:32.789Z,49.93
2019-04-20T01:05:23.360Z,49.62
2019-04-20T01:06:28.828Z,50.13
2019-04-20T01:07:23.374Z,50.44
2019-04-20T01:08:10.099Z,50.23
2019-04-20T01:09:08.068Z,50.13
2019-04-20T01:10:09.201Z,50.54
2019-04-20T01:11:08.609Z,50.44
2019-04-20T01:12:14.794Z,50.62
2019-04-20T01:13:15.085Z,50.72
2019-04-20T01:14:12.478Z,49.82
2019-04-20T01:15:11.820Z,51.05
2019-04-20T01:16:21.332Z,51.05
2019-04-20T01:17:11.936Z,51.05
2019-04-20T01:18:10.702Z,51.67
2019-04-20T01:19:08.715Z,51.26
2019-04-20T01:20:07.978Z,51.15
2019-04-20T01:21:15.880Z,51.15
2019-04-20T01:22:14.756Z,51.26
2019-04-20T01:23:14.233Z,51.18
2019-04-20T01:24:10.541Z,51.79
2019-04-20T01:25:17.248Z,51.79
2019-04-20T01:26:13.045Z,52.20
2019-04-20T01:27:24.957Z,52.41
2019-04-20T01:28:27.845Z,52.20
2019-04-20T01:29:20.201Z,52.20
2019-04-20T01:30:18.697Z,51.79
2019-04-20T01:31:21.291Z,51.79
2019-04-20T01:32:20.814Z,51.69
2019-04-20T01:33:21.181Z,52.31
2019-04-20T01:34:26.579Z,52.51
2019-04-20T01:35:27.241Z,52.00
2019-04-20T01:36:25.537Z,52.61
2019-04-20T01:37:24.636Z,52.41
2019-04-20T01:38:26.775Z,52.31
2019-04-20T01:39:17.337Z,53.23
2019-04-20T01:40:09.924Z,52.95
2019-04-20T01:41:07.913Z,53.56
2019-04-20T01:42:08.657Z,53.46
2019-04-20T01:43:08.055Z,53.54
2019-04-20T01:44:09.192Z,53.77
2019-04-20T01:45:14.560Z,52.95
2019-04-20T01:46:15.108Z,53.05
2019-04-20T01:47:12.045Z,52.95
2019-04-20T01:48:08.764Z,53.56
2019-04-20T01:49:16.834Z,53.87
2019-04-20T01:50:14.187Z,54.00
2019-04-20T01:51:16.455Z,54.00
2019-04-20T01:52:17.337Z,53.79
2019-04-20T01:53:18.995Z,53.79
2019-04-20T01:54:21.373Z,53.69
2019-04-20T01:55:27.796Z,53.69
2019-04-20T01:56:24.794Z,54.10
2019-04-20T01:57:15.557Z,54.21
2019-04-20T01:58:29.996Z,54.10
2019-04-20T01:59:20.083Z,54.41
2019-04-20T02:00:14.469Z,54.51
2019-04-20T02:01:13.713Z,54.21
2019-04-20T02:02:13.167Z,54.10
2019-04-20T02:03:09.894Z,54.51
2019-04-20T02:04:15.816Z,54.10
2019-04-20T02:05:15.794Z,54.51
2019-04-20T02:06:13.077Z,54.51
2019-04-20T02:07:09.128Z,54.61
2019-04-20T02:08:12.854Z,55.33
2019-04-20T02:09:14.774Z,55.02
2019-04-20T02:10:11.472Z,54.74
2019-04-20T02:11:09.950Z,54.64
2019-04-20T02:12:13.548Z,54.43
2019-04-20T02:13:09.799Z,55.33
2019-04-20T02:14:10.403Z,55.15
2019-04-20T02:15:17.814Z,55.36
2019-04-20T02:16:15.790Z,55.87
2019-04-20T02:17:18.035Z,55.77
2019-04-20T02:18:23.146Z,55.57
2019-04-20T02:19:25.444Z,55.77
2019-04-20T02:20:27.510Z,55.77
2019-04-20T02:21:25.873Z,55.87
2019-04-20T02:22:23.136Z,56.18
2019-04-20T02:23:22.388Z,56.31
2019-04-20T02:24:10.966Z,56.18
2019-04-20T02:25:08.027Z,55.87
2019-04-20T02:26:07.173Z,56.49
2019-04-20T02:27:10.378Z,56.38
2019-04-20T02:28:22.518Z,56.38
2019-04-20T02:29:32.606Z,56.08
2019-04-20T02:30:40.936Z,55.98
2019-04-20T02:31:57.542Z,56.31
2019-04-20T02:32:40.589Z,57.00
2019-04-20T02:34:24.128Z,56.93
2019-04-20T02:34:51.271Z,57.00
2019-04-20T02:35:48.056Z,57.03
2019-04-20T02:36:51.469Z,57.41
2019-04-20T02:37:48.964Z,57.34
2019-04-20T02:39:03.209Z,57.44
2019-04-20T02:39:45.414Z,57.34
2019-04-20T02:43:53.268Z,58.26
2019-04-20T02:44:53.028Z,57.78
2019-04-20T02:45:40.429Z,57.98
2019-04-20T02:46:44.803Z,58.18
2019-04-20T02:47:41.014Z,58.18
2019-04-20T02:48:45.313Z,58.08
2019-04-20T02:51:42.255Z,58.80
2019-04-20T02:53:57.478Z,58.80
2019-04-20T02:54:46.839Z,59.01
2019-04-20T02:55:40.245Z,58.50
2019-04-20T02:57:47.254Z,59.11
2019-04-20T02:58:43.549Z,59.14
2019-04-20T03:00:33.647Z,58.52
2019-04-20T03:01:29.193Z,59.45
2019-04-20T03:02:23.753Z,59.24
2019-04-20T03:03:20.286Z,59.65
2019-04-20T03:04:20.209Z,60.06
2019-04-20T03:05:21.561Z,59.24
2019-04-20T03:06:19.655Z,59.75
2019-04-20T03:07:23.263Z,60.06
2019-04-20T03:08:22.350Z,59.96
2019-04-20T03:09:32.466Z,60.27
2019-04-20T03:10:33.955Z,60.47
2019-04-20T03:11:42.611Z,60.58
2019-04-20T03:12:34.517Z,60.47
2019-04-20T03:13:32.273Z,60.58
2019-04-20T03:14:27.000Z,60.61
2019-04-20T03:15:36.423Z,60.09
2019-04-20T03:16:27.357Z,60.78
2019-04-20T03:17:32.822Z,60.81
2019-04-20T03:18:25.258Z,60.09
2019-04-20T03:19:25.063Z,60.78
2019-04-20T03:20:36.885Z,61.02
2019-04-20T03:21:35.942Z,61.22
2019-04-20T03:22:48.305Z,61.53
2019-04-20T03:23:38.041Z,61.53
2019-04-20T03:24:31.068Z,61.63
2019-04-20T03:25:31.556Z,61.33
2019-04-20T03:26:31.397Z,60.91
2019-04-20T03:27:25.107Z,61.94
2019-04-20T03:28:23.606Z,62.35
2019-04-20T03:29:24.114Z,62.35
2019-04-20T03:31:15.215Z,61.74
2019-04-20T03:31:59.313Z,62.35
2019-04-20T03:34:05.096Z,62.35
2019-04-20T03:35:01.059Z,62.97
2019-04-20T03:35:52.857Z,63.00
2019-04-20T03:36:35.164Z,63.10
2019-04-20T03:37:32.769Z,63.21
2019-04-20T03:38:27.272Z,63.31
2019-04-20T03:39:25.563Z,63.72
2019-04-20T03:40:22.942Z,63.93
2019-04-20T03:41:21.618Z,64.34
2019-04-20T03:42:09.357Z,63.72
2019-04-20T03:43:06.112Z,64.24
2019-04-20T03:44:12.017Z,64.14
2019-04-20T03:45:12.843Z,64.14
2019-04-20T03:46:12.768Z,64.34
2019-04-20T03:47:11.555Z,64.65
2019-04-20T03:48:26.625Z,65.06
2019-04-20T03:49:29.706Z,65.06
2019-04-20T03:50:33.548Z,64.99
2019-04-20T03:51:35.903Z,64.96
2019-04-20T03:52:28.837Z,65.19
2019-04-20T03:53:29.948Z,65.26
2019-04-20T03:54:22.235Z,64.96
2019-04-20T03:55:26.165Z,65.16
2019-04-20T03:56:28.100Z,65.06
2019-04-20T03:57:35.742Z,65.58
2019-04-20T03:58:24.136Z,65.40
2019-04-20T03:59:21.310Z,64.65
2019-04-20T04:00:29.095Z,65.06
2019-04-20T04:01:43.005Z,65.40
2019-04-20T04:02:41.187Z,64.75
2019-04-20T04:03:36.159Z,65.81
2019-04-20T04:04:32.688Z,66.43
2019-04-20T04:05:23.819Z,66.61
2019-04-20T04:06:17.866Z,66.40
2019-04-20T04:07:18.519Z,66.50
2019-04-20T04:08:20.077Z,66.09
2019-04-20T04:09:20.162Z,66.50
2019-04-20T04:10:20.749Z,65.78
2019-04-20T04:11:26.287Z,66.09
2019-04-20T04:12:17.725Z,66.40
2019-04-20T04:13:07.284Z,66.84
2019-04-20T04:14:07.028Z,66.94
2019-04-20T04:15:06.513Z,66.94
2019-04-20T04:16:10.025Z,66.74
2019-04-20T04:17:07.348Z,67.05
2019-04-20T04:18:13.877Z,67.57
2019-04-20T04:19:16.438Z,67.46
2019-04-20T04:20:11.619Z,67.77
2019-04-20T04:21:12.613Z,67.46
2019-04-20T04:22:19.247Z,67.77
2019-04-20T04:23:24.937Z,67.46
2019-04-20T04:24:19.971Z,67.57
2019-04-20T04:25:22.187Z,67.77
2019-04-20T04:26:27.514Z,67.53
2019-04-20T04:27:28.474Z,67.43
2019-04-20T04:28:19.522Z,67.74
2019-04-20T04:29:34.547Z,67.33
2019-04-20T04:30:21.866Z,67.46
2019-04-20T04:31:26.053Z,67.43
2019-04-20T04:32:46.811Z,67.43
2019-04-20T04:33:46.006Z,67.22
2019-04-20T04:34:25.051Z,67.22
2019-04-20T04:35:20.133Z,67.15
2019-04-20T04:36:21.264Z,67.84
2019-04-20T04:37:27.218Z,68.25
2019-04-20T04:38:35.946Z,68.49
2019-04-20T04:39:31.245Z,68.80
2019-04-20T04:40:31.018Z,68.59
2019-04-20T04:41:27.049Z,68.66
2019-04-20T04:42:29.424Z,68.77
2019-04-20T04:43:26.352Z,68.66
2019-04-20T04:44:22.969Z,68.46
2019-04-20T04:45:11.224Z,68.56
2019-04-20T04:46:07.820Z,68.15
2019-04-20T04:47:08.754Z,67.71
2019-04-20T04:48:12.611Z,67.84
2019-04-20T04:49:17.848Z,67.43
2019-04-20T04:50:14.200Z,67.40
2019-04-20T04:51:14.882Z,67.40
2019-04-20T04:52:12.398Z,67.19
2019-04-20T04:53:11.951Z,67.40
2019-04-20T04:54:16.290Z,67.19
2019-04-20T04:55:22.061Z,67.78
2019-04-20T04:56:11.746Z,67.68
2019-04-20T04:57:07.414Z,67.57
2019-04-20T04:58:06.459Z,67.47
2019-04-20T04:59:06.496Z,67.30
2019-04-20T05:00:05.631Z,67.16
2019-04-20T05:01:13.883Z,67.78
2019-04-20T05:02:07.585Z,67.68
2019-04-20T05:03:25.502Z,67.68
2019-04-20T05:04:28.992Z,67.47
2019-04-20T05:05:25.474Z,67.57
2019-04-20T05:06:22.023Z,67.68
2019-04-20T05:07:16.648Z,67.78
2019-04-20T05:08:18.055Z,67.57
2019-04-20T05:09:10.587Z,67.36
2019-04-20T05:10:07.614Z,67.36
2019-04-20T05:11:06.803Z,67.06
2019-04-20T05:12:12.714Z,67.44
2019-04-20T05:13:07.138Z,67.44
2019-04-20T05:14:10.149Z,67.03
2019-04-20T05:15:14.271Z,67.03
2019-04-20T05:16:19.324Z,66.41
2019-04-20T05:17:21.944Z,66.61
2019-04-20T05:19:44.303Z,67.03
2019-04-20T05:20:25.468Z,66.79
2019-04-20T05:21:25.368Z,66.61
2019-04-20T05:22:32.109Z,66.79
2019-04-20T05:23:22.006Z,66.58
2019-04-20T05:24:23.212Z,66.69
2019-04-20T05:25:26.385Z,66.89
2019-04-20T05:26:27.169Z,66.48
2019-04-20T05:27:26.092Z,67.00
2019-04-20T05:28:20.806Z,66.89
2019-04-20T05:29:15.448Z,66.69
2019-04-20T05:30:07.442Z,66.04
2019-04-20T05:31:06.877Z,66.86
2019-04-20T05:32:11.498Z,66.55
2019-04-20T05:33:12.987Z,65.63
2019-04-20T05:34:26.319Z,65.70
2019-04-20T05:35:29.530Z,65.09
2019-04-20T05:36:23.133Z,65.39
2019-04-20T05:37:34.616Z,65.19
2019-04-20T05:38:32.693Z,64.67
2019-04-20T05:39:36.846Z,64.95
2019-04-20T05:40:28.882Z,64.75
2019-04-20T05:41:24.064Z,64.13
2019-04-20T05:42:33.938Z,63.79
2019-04-20T05:43:25.002Z,64.10
2019-04-20T05:44:24.796Z,63.49
2019-04-20T05:45:22.116Z,63.59
2019-04-20T05:46:26.190Z,63.56
2019-04-20T05:47:27.015Z,63.35
2019-04-20T05:48:20.614Z,62.40
2019-04-20T05:49:27.153Z,62.71
2019-04-20T05:50:27.413Z,62.12
2019-04-20T05:51:29.713Z,63.05
2019-04-20T05:52:39.087Z,63.12
2019-04-20T05:53:30.495Z,61.58
2019-04-20T05:54:26.798Z,62.10
2019-04-20T05:55:25.296Z,60.94
2019-04-20T05:56:34.411Z,60.74
2019-04-20T05:57:30.192Z,60.30
2019-04-20T05:58:30.455Z,59.66
2019-04-20T05:59:28.367Z,59.66
2019-04-20T06:00:27.676Z,58.81
2019-04-20T06:01:29.959Z,58.58
2019-04-20T06:02:27.255Z,58.25
2019-04-20T06:03:28.831Z,57.81
2019-04-20T06:05:28.968Z,55.33
2019-04-20T06:06:27.636Z,55.74
2019-04-20T06:07:27.123Z,55.30
2019-04-20T06:09:30.776Z,54.33
2019-04-20T06:10:27.391Z,53.09
2019-04-20T06:11:26.667Z,51.84
2019-04-20T06:12:28.455Z,51.31
2019-04-20T06:13:17.737Z,50.12
2019-04-20T06:14:13.479Z,48.97
2019-04-20T06:15:20.043Z,47.69
2019-04-20T06:16:25.212Z,46.10
2019-04-20T06:17:26.623Z,43.44
2019-04-20T06:18:21.416Z,43.73
2019-04-20T06:19:31.298Z,43.51
2019-04-20T06:20:27.197Z,41.83
2019-04-20T06:21:31.265Z,39.65
2019-04-20T06:22:31.391Z,39.29
2019-04-20T06:23:33.210Z,37.02
2019-04-20T06:24:33.270Z,36.42
2019-04-20T06:26:40.146Z,35.98
2019-04-20T06:27:30.241Z,33.92
2019-04-20T06:28:22.233Z,33.31
2019-04-20T06:29:23.644Z,32.17
2019-04-20T06:30:19.058Z,31.76
2019-04-20T06:31:32.489Z,31.52
2019-04-20T06:32:33.966Z,30.91
2019-04-20T06:34:41.340Z,30.18
2019-04-20T06:35:42.418Z,29.47
2019-04-20T06:36:33.633Z,29.78
2019-04-20T06:37:25.788Z,30.49
2019-04-20T06:38:46.635Z,30.60
2019-04-20T06:39:30.964Z,29.78
2019-04-20T06:40:55.216Z,29.88
2019-04-20T06:41:49.127Z,30.27
2019-04-20T06:42:21.957Z,29.14
2019-04-20T06:43:28.432Z,28.44
2019-04-20T06:44:31.927Z,29.35
2019-04-20T06:45:33.791Z,29.14
2019-04-20T06:46:28.546Z,28.03
2019-04-20T06:47:29.292Z,27.50
2019-04-20T06:48:35.029Z,26.47
2019-04-20T06:49:29.129Z,26.04
2019-04-20T06:50:22.641Z,24.93
2019-04-20T06:51:32.427Z,24.80
2019-04-20T06:53:32.256Z,25.34
2019-04-20T06:54:16.341Z,25.02
2019-04-20T06:55:30.570Z,25.13
2019-04-20T06:56:29.412Z,23.80
2019-04-20T06:57:25.502Z,22.97
2019-04-20T06:58:39.145Z,22.45
2019-04-20T06:59:32.209Z,22.34
2019-04-20T07:00:18.009Z,21.73
2019-04-20T07:01:25.147Z,21.42
2019-04-20T07:02:31.410Z,20.03
2019-04-20T07:05:27.371Z,21.14
2019-04-20T07:06:48.301Z,20.44
2019-04-20T07:07:27.921Z,19.82
2019-04-20T07:08:41.102Z,19.60
2019-04-20T07:09:30.904Z,19.89
2019-04-20T07:10:46.874Z,19.08
2019-04-20T07:11:25.304Z,18.48
2019-04-20T07:12:24.134Z,19.25
2019-04-20T07:13:17.682Z,18.17
2019-04-20T07:14:11.381Z,19.04
2019-04-20T07:15:22.751Z,17.86
2019-04-20T07:16:30.627Z,18.44
2019-04-20T07:17:40.728Z,17.85
2019-04-20T07:18:29.650Z,17.55
2019-04-20T07:19:24.029Z,17.63
2019-04-20T07:20:27.754Z,17.24
2019-04-20T07:21:43.695Z,16.24
2019-04-20T07:22:40.750Z,15.95
2019-04-20T07:23:26.561Z,16.24
2019-04-20T07:24:38.429Z,16.42
2019-04-20T07:25:29.336Z,16.34
2019-04-20T07:26:31.908Z,16.13
2019-04-20T07:27:24.426Z,15.83
2019-04-20T07:28:32.737Z,15.32
2019-04-20T07:29:26.043Z,15.11
2019-04-20T07:30:23.597Z,15.22
2019-04-20T07:31:23.033Z,14.92
2019-04-20T07:32:20.385Z,14.72
2019-04-20T07:33:26.728Z,15.09
2019-04-20T07:34:27.825Z,14.40
2019-04-20T07:35:24.852Z,14.10
2019-04-20T07:36:34.888Z,13.42
2019-04-20T07:37:51.393Z,14.22
2019-04-20T07:39:30.222Z,14.72
2019-04-20T07:40:25.791Z,14.92
2019-04-20T07:41:32.946Z,14.42
2019-04-20T07:42:29.090Z,14.81
2019-04-20T07:43:25.582Z,14.12
2019-04-20T07:44:35.997Z,14.11
2019-04-20T07:46:42.410Z,13.79
2019-04-20T07:47:35.674Z,13.89
2019-04-20T07:48:33.299Z,12.62
2019-04-20T07:49:27.467Z,13.21
2019-04-20T07:50:18.626Z,13.10
2019-04-20T07:51:12.395Z,13.81
2019-04-20T07:52:04.353Z,14.81
2019-04-20T07:53:20.192Z,14.42
2019-04-20T07:54:33.338Z,14.23
2019-04-20T07:57:25.894Z,13.81
2019-04-20T07:58:19.807Z,13.79
2019-04-20T07:59:22.257Z,12.93
2019-04-20T08:00:35.173Z,13.51
2019-04-20T08:01:34.215Z,12.63
2019-04-20T08:02:33.392Z,12.91
2019-04-20T08:03:29.581Z,13.18
2019-04-20T08:04:24.513Z,13.09
2019-04-20T08:05:19.659Z,13.78
2019-04-20T08:06:11.589Z,13.02
2019-04-20T08:07:09.177Z,14.22
2019-04-20T08:08:32.860Z,14.72
2019-04-20T08:09:19.649Z,14.92
2019-04-20T08:10:11.123Z,14.63
2019-04-20T08:11:21.615Z,14.62
2019-04-20T08:12:29.281Z,14.00
2019-04-20T08:13:31.925Z,13.71
2019-04-20T08:14:30.218Z,14.79
2019-04-20T08:15:36.449Z,14.11
2019-04-20T08:16:43.371Z,13.79
2019-04-20T08:17:30.484Z,13.08
2019-04-20T08:18:27.735Z,12.58
2019-04-20T08:19:33.132Z,13.09
2019-04-20T08:20:22.826Z,13.88
2019-04-20T08:21:32.701Z,13.01
2019-04-20T08:22:26.745Z,12.91
2019-04-20T08:23:24.418Z,14.02
2019-04-20T08:24:21.417Z,15.42
2019-04-20T08:25:16.726Z,15.33
2019-04-20T08:26:13.974Z,16.41
2019-04-20T08:27:07.611Z,15.51
2019-04-20T08:28:08.374Z,14.70
2019-04-20T08:29:18.805Z,13.69
2019-04-20T08:30:28.135Z,13.37
2019-04-20T08:31:20.579Z,13.35
2019-04-20T08:32:22.929Z,13.23
2019-04-20T08:33:21.063Z,12.24
2019-04-20T08:34:27.653Z,11.46
2019-04-20T08:35:26.516Z,11.66
2019-04-20T08:36:27.000Z,12.46
2019-04-20T08:37:20.697Z,12.87
2019-04-20T08:39:43.422Z,12.36
2019-04-20T08:40:25.416Z,11.96
2019-04-20T08:41:20.737Z,11.86
2019-04-20T08:42:21.792Z,11.76
2019-04-20T08:43:38.307Z,11.55
2019-04-20T08:44:49.265Z,11.36
2019-04-20T08:45:32.901Z,11.16
2019-04-20T08:46:25.202Z,10.97
2019-04-20T08:47:34.587Z,11.15
2019-04-20T08:48:28.786Z,11.35
2019-04-20T08:49:29.587Z,11.36
2019-04-20T08:50:22.442Z,12.25
2019-04-20T08:51:25.517Z,11.97
2019-04-20T08:52:52.088Z,13.05
2019-04-20T08:53:27.465Z,12.68
2019-04-20T08:54:22.051Z,12.70
2019-04-20T08:55:28.190Z,12.70
2019-04-20T08:56:19.718Z,13.07
2019-04-20T08:57:05.040Z,13.25
2019-04-20T08:58:02.879Z,12.56
2019-04-20T08:59:03.953Z,12.94
2019-04-20T09:00:05.003Z,11.77
2019-04-20T09:01:14.437Z,12.25
2019-04-20T09:02:09.030Z,12.55
2019-04-20T09:03:12.943Z,12.45
2019-04-20T09:04:11.113Z,12.43
2019-04-20T09:05:13.080Z,12.04
2019-04-20T09:06:14.329Z,11.55
2019-04-20T09:07:11.530Z,11.85
2019-04-20T09:08:14.397Z,11.56
2019-04-20T09:09:34.841Z,11.75
2019-04-20T09:10:32.428Z,11.44
2019-04-20T09:11:21.935Z,11.34
2019-04-20T09:12:19.148Z,10.84
2019-04-20T09:13:16.001Z,10.06
2019-04-20T09:14:05.920Z,10.43
2019-04-20T09:15:03.718Z,10.34
2019-04-20T09:16:04.501Z,10.24
2019-04-20T09:17:08.079Z,9.56
2019-04-20T09:18:13.547Z,10.15
2019-04-20T09:19:07.639Z,10.95
2019-04-20T09:20:10.305Z,11.43
2019-04-20T09:21:13.643Z,11.52
2019-04-20T09:22:22.973Z,10.55
2019-04-20T09:23:16.700Z,10.17
2019-04-20T09:24:30.232Z,10.36
2019-04-20T09:25:43.058Z,10.47
2019-04-20T09:26:20.219Z,10.27
2019-04-20T09:27:15.707Z,10.67
2019-04-20T09:28:14.569Z,10.96
2019-04-20T09:29:15.989Z,11.15
2019-04-20T09:30:20.899Z,10.96
2019-04-20T09:31:35.889Z,11.14
2019-04-20T09:32:26.272Z,10.85
2019-04-20T09:33:27.393Z,10.86
2019-04-20T09:34:20.337Z,11.24
2019-04-20T09:35:31.274Z,11.06
2019-04-20T09:36:18.670Z,10.97
2019-04-20T09:37:41.343Z,11.07
2019-04-20T09:38:14.604Z,11.66
2019-04-20T09:39:11.459Z,11.66
2019-04-20T09:40:21.335Z,11.38
2019-04-20T09:41:27.537Z,11.86
2019-04-20T09:42:03.736Z,11.29
2019-04-20T09:43:02.427Z,11.19
2019-04-20T09:44:02.530Z,11.86
2019-04-20T09:45:04.469Z,11.27
2019-04-20T09:46:06.669Z,11.36
2019-04-20T09:47:06.497Z,11.07
2019-04-20T09:48:06.748Z,10.96
2019-04-20T09:49:20.633Z,10.08
2019-04-20T09:50:21.184Z,10.47
2019-04-20T09:51:27.016Z,10.75
2019-04-20T09:52:16.968Z,9.68
2019-04-20T09:53:20.891Z,9.30
2019-04-20T09:54:22.936Z,9.30
2019-04-20T09:55:18.416Z,9.20
2019-04-20T09:56:20.833Z,9.61
2019-04-20T09:57:25.525Z,10.81
2019-04-20T09:58:15.943Z,11.00
2019-04-20T09:59:25.098Z,11.56
2019-04-20T10:00:18.348Z,10.19
2019-04-20T10:01:16.622Z,10.38
2019-04-20T10:02:10.261Z,10.50
2019-04-20T10:03:04.419Z,10.87
2019-04-20T10:04:03.373Z,9.61
2019-04-20T10:05:02.104Z,9.32
2019-04-20T10:06:03.399Z,9.80
2019-04-20T10:07:08.874Z,9.41
2019-04-20T10:08:07.953Z,9.99
2019-04-20T10:09:05.053Z,9.42
2019-04-20T10:10:17.898Z,8.75
2019-04-20T10:11:03.613Z,7.60
2019-04-20T10:12:01.899Z,8.76
2019-04-20T10:13:02.521Z,9.63
2019-04-20T10:14:02.046Z,9.72
2019-04-20T10:15:12.397Z,10.01
2019-04-20T10:16:03.850Z,9.72
2019-04-20T10:17:02.219Z,9.33
2019-04-20T10:18:02.019Z,9.56
2019-04-20T10:19:04.822Z,10.56
2019-04-20T10:20:10.444Z,11.24
2019-04-20T10:21:02.831Z,11.25
2019-04-20T10:22:02.522Z,11.27
2019-04-20T10:23:02.701Z,11.44
2019-04-20T10:24:02.865Z,10.27
2019-04-20T10:25:04.586Z,10.25
2019-04-20T10:26:02.607Z,10.72
2019-04-20T10:27:03.043Z,10.72
2019-04-20T10:28:05.418Z,9.55
2019-04-20T10:29:07.874Z,9.25
2019-04-20T10:30:04.747Z,9.25
2019-04-20T10:31:02.597Z,8.47
2019-04-20T10:32:07.000Z,7.60
2019-04-20T10:33:03.606Z,8.75
2019-04-20T10:34:01.770Z,8.56
2019-04-20T10:35:02.524Z,8.75
2019-04-20T10:36:01.692Z,8.75
2019-04-20T10:37:01.828Z,8.64
2019-04-20T10:38:01.643Z,8.73
2019-04-20T10:39:02.408Z,7.96
2019-04-20T10:40:02.871Z,8.17
2019-04-20T10:41:08.602Z,8.75
2019-04-20T10:42:04.263Z,8.67
2019-04-20T10:43:03.178Z,7.71
2019-04-20T10:44:02.869Z,8.76
2019-04-20T10:45:03.910Z,8.95
2019-04-20T10:46:02.716Z,8.76
2019-04-20T10:47:02.894Z,8.75
2019-04-20T10:48:03.337Z,8.07
2019-04-20T10:49:04.762Z,8.54
2019-04-20T10:50:02.902Z,7.29
2019-04-20T10:51:01.534Z,6.52
2019-04-20T10:52:01.981Z,7.48
2019-04-20T10:53:01.668Z,7.19
2019-04-20T10:54:02.484Z,6.81
2019-04-20T10:55:02.887Z,7.70
2019-04-20T10:56:01.533Z,9.27
2019-04-20T10:57:01.615Z,10.64
2019-04-20T10:58:01.911Z,11.35
2019-04-20T10:59:01.827Z,10.84
2019-04-20T11:00:01.883Z,10.63
2019-04-20T11:01:02.188Z,10.04
2019-04-20T11:02:01.857Z,9.75
2019-04-20T11:03:01.774Z,8.97
2019-04-20T11:04:03.018Z,10.03
2019-04-20T11:05:02.631Z,9.26
2019-04-20T11:06:02.728Z,9.73
2019-04-20T11:07:02.732Z,8.48
2019-04-20T11:08:04.278Z,9.74
2019-04-20T11:09:04.568Z,9.93
2019-04-20T11:10:11.199Z,9.65
2019-04-20T11:11:11.858Z,9.54
2019-04-20T11:12:02.522Z,9.45
2019-04-20T11:13:03.190Z,9.45
2019-04-20T11:14:08.394Z,9.64
2019-04-20T11:15:03.131Z,9.64
2019-04-20T11:16:02.198Z,10.23
2019-04-20T11:17:02.727Z,10.52
2019-04-20T11:18:01.752Z,10.55
2019-04-20T11:19:01.523Z,11.55
2019-04-20T11:20:01.487Z,11.27
2019-04-20T11:21:01.549Z,11.05
2019-04-20T11:22:02.208Z,10.55
2019-04-20T11:23:02.359Z,10.75
2019-04-20T11:24:02.502Z,10.86
2019-04-20T11:25:02.148Z,11.27
2019-04-20T11:26:02.216Z,11.26
2019-04-20T11:27:02.404Z,10.66
2019-04-20T11:28:01.825Z,10.75
2019-04-20T11:29:02.280Z,10.16
2019-04-20T11:30:02.861Z,10.55
2019-04-20T11:31:02.016Z,10.55
2019-04-20T11:32:01.558Z,10.55
2019-04-20T11:33:02.307Z,10.74
2019-04-20T11:34:01.746Z,10.16
2019-04-20T11:35:09.074Z,10.54
2019-04-20T11:36:03.223Z,10.72
2019-04-20T11:37:01.432Z,9.66
2019-04-20T11:38:01.096Z,9.26
2019-04-20T11:39:01.131Z,10.04
2019-04-20T11:40:01.411Z,10.16
2019-04-20T11:41:11.248Z,10.65
2019-04-20T11:42:03.554Z,10.85
2019-04-20T11:43:01.670Z,10.84
2019-04-20T11:44:01.967Z,10.93
2019-04-20T11:45:01.025Z,10.63
2019-04-20T11:46:01.022Z,10.42
2019-04-20T11:47:02.796Z,10.61
2019-04-20T11:48:01.238Z,9.73
2019-04-20T11:49:01.406Z,9.72
2019-04-20T11:50:04.050Z,9.53
2019-04-20T11:51:03.411Z,8.66
2019-04-20T11:52:13.665Z,9.94
2019-04-20T11:53:01.601Z,10.25
2019-04-20T11:54:00.977Z,10.33
2019-04-20T11:55:02.289Z,9.84
2019-04-20T11:56:00.924Z,10.32
2019-04-20T11:57:01.700Z,9.92
2019-04-20T11:58:01.798Z,9.55
2019-04-20T11:59:01.002Z,10.71
2019-04-20T12:00:01.177Z,10.04
2019-04-20T12:01:08.525Z,10.63
2019-04-20T12:02:05.473Z,10.04
2019-04-20T12:03:12.037Z,9.36
2019-04-20T12:04:17.148Z,9.45
2019-04-20T12:05:13.122Z,9.93
2019-04-20T12:06:05.313Z,9.74
2019-04-20T12:07:01.815Z,9.44
2019-04-20T12:08:00.924Z,9.73
2019-04-20T12:09:01.089Z,9.44
2019-04-20T12:10:08.093Z,9.75
2019-04-20T12:11:18.780Z,10.05
2019-04-20T12:12:11.874Z,10.16
2019-04-20T12:13:03.908Z,10.94
2019-04-20T12:14:01.188Z,11.05
2019-04-20T12:15:01.636Z,11.25
2019-04-20T12:16:01.600Z,10.76
2019-04-20T12:17:01.744Z,11.55
2019-04-20T12:18:01.956Z,11.27
2019-04-20T12:19:02.139Z,11.76
2019-04-20T12:20:01.741Z,11.46
2019-04-20T12:21:00.894Z,11.75
2019-04-20T12:22:00.863Z,11.65
2019-04-20T12:23:00.684Z,11.45
2019-04-20T12:24:00.741Z,11.54
2019-04-20T12:25:02.544Z,10.66
2019-04-20T12:26:02.004Z,10.95
2019-04-20T12:27:02.918Z,11.36
2019-04-20T12:28:02.330Z,11.26
2019-04-20T12:29:01.454Z,11.45
2019-04-20T12:30:01.806Z,11.07
2019-04-20T12:31:04.158Z,11.06
2019-04-20T12:32:05.470Z,11.15
2019-04-20T12:33:03.485Z,11.15
2019-04-20T12:34:00.587Z,11.54
2019-04-20T12:35:02.457Z,11.36
2019-04-20T12:36:00.593Z,11.47
2019-04-20T12:37:00.804Z,12.34
2019-04-20T12:38:00.992Z,11.46
2019-04-20T12:39:01.228Z,11.65
2019-04-20T12:40:00.830Z,11.83
2019-04-20T12:41:04.913Z,11.45
2019-04-20T12:42:04.651Z,11.57
2019-04-20T12:43:01.535Z,12.68
2019-04-20T12:44:01.708Z,13.29
2019-04-20T12:45:01.685Z,13.39
2019-04-20T12:46:02.243Z,13.68
2019-04-20T12:47:01.527Z,13.39
2019-04-20T12:48:01.684Z,14.08
2019-04-20T12:49:01.751Z,13.21
2019-04-20T12:50:01.375Z,13.79
2019-04-20T12:51:01.636Z,14.00
2019-04-20T12:52:04.446Z,13.81
2019-04-20T12:53:02.609Z,13.72
2019-04-20T12:54:02.573Z,14.71
2019-04-20T12:55:02.723Z,13.73
2019-04-20T12:56:00.476Z,14.22
2019-04-20T12:57:00.561Z,14.32
2019-04-20T12:58:02.784Z,14.23
2019-04-20T12:59:00.528Z,13.92
2019-04-20T13:00:01.665Z,13.82
2019-04-20T13:01:00.609Z,14.32
2019-04-20T13:02:01.651Z,15.01
2019-04-20T13:03:01.172Z,15.32
2019-04-20T13:04:02.953Z,14.94
2019-04-20T13:05:01.596Z,15.44
2019-04-20T13:06:01.686Z,15.42
2019-04-20T13:07:01.662Z,14.92
2019-04-20T13:08:02.705Z,14.04
2019-04-20T13:09:02.388Z,14.54
2019-04-20T13:10:02.199Z,15.32
2019-04-20T13:11:00.502Z,14.65
2019-04-20T13:12:05.307Z,15.05
2019-04-20T13:13:02.364Z,16.26
2019-04-20T13:14:00.221Z,17.17
2019-04-20T13:15:00.364Z,17.07
2019-04-20T13:16:00.657Z,15.97
2019-04-20T13:17:00.355Z,16.45